createdAt,value
2022-10-17T00:00:49.585Z,69.67
2022-10-17T00:03:16.821Z,69.61
2022-10-17T00:05:48.321Z,69.69
2022-10-17T00:08:17.013Z,70.00
2022-10-17T00:10:44.116Z,70.00
2022-10-17T00:13:11.662Z,69.87
2022-10-17T00:15:40.855Z,70.27
2022-10-17T00:18:07.859Z,69.96
2022-10-17T00:20:37.578Z,70.16
2022-10-17T00:23:04.652Z,70.28
2022-10-17T00:25:31.802Z,70.29
2022-10-17T00:27:58.672Z,70.32
2022-10-17T00:30:27.301Z,70.37
2022-10-17T00:32:54.310Z,70.37
2022-10-17T00:35:21.362Z,70.24
2022-10-17T00:37:48.785Z,70.14
2022-10-17T00:40:15.742Z,70.07
2022-10-17T00:42:42.836Z,70.24
2022-10-17T00:45:24.887Z,70.44
2022-10-17T00:48:00.770Z,70.40
2022-10-17T00:50:28.732Z,70.28
2022-10-17T00:52:59.508Z,70.44
2022-10-17T00:55:31.508Z,70.66
2022-10-17T00:58:04.128Z,70.88
2022-10-17T01:00:31.328Z,70.78
2022-10-17T01:03:01.153Z,70.94
2022-10-17T01:05:28.419Z,70.99
2022-10-17T01:07:56.227Z,71.12
2022-10-17T01:10:41.730Z,71.44
2022-10-17T01:13:16.144Z,71.62
2022-10-17T01:16:06.247Z,71.82
2022-10-17T01:18:42.101Z,72.00
2022-10-17T01:21:47.682Z,72.04
2022-10-17T01:24:59.328Z,72.33
2022-10-17T01:27:44.258Z,72.25
2022-10-17T01:30:23.542Z,72.33
2022-10-17T01:32:57.179Z,72.54
2022-10-17T01:35:34.433Z,72.86
2022-10-17T01:38:13.396Z,72.81
2022-10-17T01:40:53.967Z,72.79
2022-10-17T01:43:40.534Z,73.07
2022-10-17T01:46:22.305Z,73.15
2022-10-17T01:48:49.185Z,73.25
2022-10-17T01:51:20.692Z,73.29
2022-10-17T01:54:17.762Z,73.33
2022-10-17T01:56:49.210Z,73.51
2022-10-17T01:59:43.022Z,73.61
2022-10-17T02:02:11.600Z,73.71
2022-10-17T02:04:38.500Z,73.81
2022-10-17T02:07:09.563Z,73.61
2022-10-17T02:09:40.696Z,73.77
2022-10-17T02:12:07.723Z,73.85
2022-10-17T02:14:56.185Z,73.78
2022-10-17T02:17:26.909Z,73.94
2022-10-17T02:20:16.236Z,73.95
2022-10-17T02:22:49.023Z,73.94
2022-10-17T02:25:36.651Z,74.14
2022-10-17T02:28:06.669Z,74.39
2022-10-17T02:30:53.956Z,74.34
2022-10-17T02:33:36.664Z,74.35
2022-10-17T02:36:07.738Z,74.47
2022-10-17T02:38:35.287Z,74.48
2022-10-17T02:41:07.606Z,74.46
2022-10-17T02:43:38.779Z,74.59
2022-10-17T02:46:08.162Z,74.69
2022-10-17T02:48:40.661Z,74.76
2022-10-17T02:51:13.181Z,74.74
2022-10-17T02:54:17.474Z,74.85
2022-10-17T02:56:52.472Z,74.98
2022-10-17T02:59:25.269Z,74.90
2022-10-17T03:01:52.738Z,75.29
2022-10-17T03:04:20.063Z,75.33
2022-10-17T03:06:49.546Z,75.57
2022-10-17T03:09:18.288Z,75.48
2022-10-17T03:11:45.329Z,75.64
2022-10-17T03:14:12.291Z,75.72
2022-10-17T03:16:41.712Z,75.57
2022-10-17T03:19:08.896Z,75.74
2022-10-17T03:21:39.008Z,75.81
2022-10-17T03:24:11.385Z,75.86
2022-10-17T03:26:39.126Z,75.89
2022-10-17T03:29:06.747Z,75.90
2022-10-17T03:31:59.629Z,76.05
2022-10-17T03:34:30.959Z,75.81
2022-10-17T03:36:57.961Z,75.93
2022-10-17T03:39:27.886Z,75.66
2022-10-17T03:41:54.799Z,75.92
2022-10-17T03:44:21.890Z,75.99
2022-10-17T03:46:49.942Z,75.89
2022-10-17T03:49:16.991Z,75.84
2022-10-17T03:51:44.083Z,75.95
2022-10-17T03:54:14.267Z,75.82
2022-10-17T03:56:41.631Z,75.74
2022-10-17T03:59:14.543Z,75.83
2022-10-17T04:01:44.526Z,75.71
2022-10-17T04:04:12.992Z,75.83
2022-10-17T04:06:40.175Z,75.82
2022-10-17T04:09:07.888Z,75.57
2022-10-17T04:11:57.648Z,75.55
2022-10-17T04:14:25.847Z,75.26
2022-10-17T04:16:53.669Z,75.02
2022-10-17T04:19:25.898Z,74.90
2022-10-17T04:21:54.342Z,74.58
2022-10-17T04:24:23.724Z,74.62
2022-10-17T04:26:59.033Z,74.74
2022-10-17T04:29:29.071Z,74.46
2022-10-17T04:32:05.358Z,74.50
2022-10-17T04:34:42.651Z,74.37
2022-10-17T04:37:09.825Z,73.90
2022-10-17T04:39:37.381Z,74.04
2022-10-17T04:42:04.526Z,74.04
2022-10-17T04:44:35.795Z,73.82
2022-10-17T04:47:03.143Z,73.78
2022-10-17T04:49:30.144Z,73.77
2022-10-17T04:52:16.022Z,73.19
2022-10-17T04:54:49.026Z,73.27
2022-10-17T04:57:17.589Z,73.20
2022-10-17T05:00:00.478Z,73.18
2022-10-17T05:02:47.768Z,73.00
2022-10-17T05:05:16.189Z,72.79
2022-10-17T05:07:51.175Z,72.51
2022-10-17T05:10:21.644Z,72.41
2022-10-17T05:12:52.112Z,72.55
2022-10-17T05:15:32.300Z,72.07
2022-10-17T05:18:01.597Z,71.94
2022-10-17T05:20:31.341Z,71.31
2022-10-17T05:23:02.491Z,71.48
2022-10-17T05:25:34.632Z,71.44
2022-10-17T05:28:01.960Z,71.05
2022-10-17T05:30:35.202Z,71.46
2022-10-17T05:33:05.806Z,71.44
2022-10-17T05:35:36.321Z,71.25
2022-10-17T05:38:03.539Z,70.98
2022-10-17T05:40:34.663Z,70.65
2022-10-17T05:43:08.953Z,70.21
2022-10-17T05:45:39.805Z,69.87
2022-10-17T05:48:15.581Z,69.36
2022-10-17T05:50:45.646Z,69.03
2022-10-17T05:53:49.988Z,68.51
2022-10-17T05:56:24.614Z,68.49
2022-10-17T05:58:55.198Z,68.04
2022-10-17T06:01:43.958Z,68.09
2022-10-17T06:04:11.708Z,68.03
2022-10-17T06:06:41.747Z,67.64
2022-10-17T06:09:17.037Z,67.33
2022-10-17T06:11:51.306Z,67.37
2022-10-17T06:14:22.249Z,67.38
2022-10-17T06:16:52.886Z,67.49
2022-10-17T06:19:20.088Z,67.56
2022-10-17T06:21:57.408Z,67.42
2022-10-17T06:24:27.334Z,67.08
2022-10-17T06:26:55.553Z,67.24
2022-10-17T06:29:24.447Z,67.08
2022-10-17T06:31:52.689Z,66.80
2022-10-17T06:34:26.048Z,66.96
2022-10-17T06:39:42.540Z,66.44
2022-10-17T06:42:19.549Z,65.65
2022-10-17T06:45:09.475Z,65.18
2022-10-17T06:47:51.721Z,65.88
2022-10-17T06:50:37.200Z,65.35
2022-10-17T06:53:17.812Z,64.91
2022-10-17T06:55:52.243Z,64.72
2022-10-17T06:58:40.152Z,64.09
2022-10-17T07:01:28.389Z,64.17
2022-10-17T07:03:58.200Z,63.61
2022-10-17T07:06:26.172Z,63.57
2022-10-17T07:08:58.763Z,63.46
2022-10-17T07:11:26.189Z,63.80
2022-10-17T07:13:53.118Z,63.51
2022-10-17T07:16:21.730Z,63.34
2022-10-17T07:18:55.120Z,63.40
2022-10-17T07:21:22.352Z,63.70
2022-10-17T07:23:49.360Z,63.88
2022-10-17T07:26:18.749Z,63.82
2022-10-17T07:28:53.767Z,64.35
2022-10-17T07:31:33.393Z,64.06
2022-10-17T07:34:03.612Z,64.00
2022-10-17T07:36:33.581Z,63.67
2022-10-17T07:39:11.673Z,63.01
2022-10-17T07:41:42.291Z,63.38
2022-10-17T07:44:11.884Z,62.91
2022-10-17T07:46:49.117Z,63.24
2022-10-17T07:49:19.734Z,63.30
2022-10-17T07:51:48.035Z,63.61
2022-10-17T07:54:15.016Z,63.58
2022-10-17T07:56:42.128Z,63.57
2022-10-17T07:59:09.664Z,63.56
2022-10-17T08:01:37.208Z,64.02
2022-10-17T08:04:06.731Z,63.62
2022-10-17T08:06:36.036Z,63.92
2022-10-17T08:09:06.123Z,64.10
2022-10-17T08:11:33.115Z,63.86
2022-10-17T08:14:02.159Z,63.74
2022-10-17T08:16:31.739Z,64.02
2022-10-17T08:19:04.381Z,63.88
2022-10-17T08:21:31.543Z,63.68
2022-10-17T08:23:59.789Z,63.61
2022-10-17T08:26:30.739Z,63.90
2022-10-17T08:28:57.908Z,63.69
2022-10-17T08:31:27.706Z,63.59
2022-10-17T08:33:54.908Z,63.79
2022-10-17T08:36:22.099Z,64.07
2022-10-17T08:38:52.770Z,64.57
2022-10-17T08:41:25.479Z,65.54
2022-10-17T08:44:16.782Z,66.88
2022-10-17T08:46:46.577Z,67.65
2022-10-17T08:49:21.471Z,68.21
2022-10-17T08:51:51.722Z,68.88
2022-10-17T08:54:51.628Z,69.44
2022-10-17T08:57:19.301Z,70.37
2022-10-17T08:59:57.946Z,71.21
2022-10-17T09:02:53.699Z,72.31
2022-10-17T09:05:38.930Z,73.43
2022-10-17T09:08:41.665Z,76.36
2022-10-17T09:11:33.607Z,80.10
2022-10-17T09:14:04.168Z,82.20
2022-10-17T09:16:47.019Z,83.48
2022-10-17T09:19:24.446Z,84.58
2022-10-17T09:21:57.800Z,86.16
2022-10-17T09:24:37.887Z,87.06
2022-10-17T09:27:06.304Z,88.57
2022-10-17T09:29:41.462Z,89.89
2022-10-17T09:32:24.383Z,90.60
2022-10-17T09:34:56.147Z,91.16
2022-10-17T09:37:31.542Z,91.72
2022-10-17T09:40:01.301Z,92.36
2022-10-17T09:42:31.156Z,92.75
2022-10-17T09:45:19.578Z,93.54
2022-10-17T09:47:57.538Z,94.15
2022-10-17T09:50:32.364Z,94.49
2022-10-17T09:53:10.396Z,94.45
2022-10-17T09:55:43.527Z,94.85
2022-10-17T09:58:12.281Z,94.86
2022-10-17T10:00:42.661Z,95.06
2022-10-17T10:03:24.474Z,95.01
2022-10-17T10:06:17.530Z,95.18
2022-10-17T10:08:58.989Z,94.51
2022-10-17T10:11:51.110Z,93.99
2022-10-17T10:14:30.368Z,93.41
2022-10-17T10:16:57.381Z,92.10
2022-10-17T10:19:34.360Z,91.66
2022-10-17T10:22:06.031Z,91.43
2022-10-17T10:24:33.231Z,91.39
2022-10-17T10:27:03.288Z,91.43
2022-10-17T10:29:32.375Z,91.57
2022-10-17T10:35:20.071Z,91.31
2022-10-17T10:38:11.964Z,91.09
2022-10-17T10:40:47.859Z,90.50
2022-10-17T10:43:34.095Z,90.63
2022-10-17T10:46:01.365Z,90.54
2022-10-17T10:48:36.923Z,90.81
2022-10-17T10:51:14.247Z,90.88
2022-10-17T10:53:44.876Z,90.97
2022-10-17T10:56:18.123Z,90.84
2022-10-17T10:58:45.049Z,90.89
2022-10-17T11:01:50.921Z,90.84
2022-10-17T11:04:30.039Z,90.76
2022-10-17T11:07:26.213Z,90.63
2022-10-17T11:10:10.346Z,90.91
2022-10-17T11:15:25.451Z,90.88
2022-10-17T11:18:00.195Z,91.18
2022-10-17T11:20:32.078Z,90.97
2022-10-17T11:23:14.942Z,91.12
2022-10-17T11:25:42.320Z,91.51
2022-10-17T11:28:20.086Z,91.81
2022-10-17T11:30:57.059Z,91.97
2022-10-17T11:33:45.926Z,91.83
2022-10-17T11:36:14.660Z,91.77
2022-10-17T11:39:07.091Z,91.86
2022-10-17T11:41:42.008Z,92.00
2022-10-17T11:44:22.555Z,92.36
2022-10-17T11:46:55.430Z,92.15
2022-10-17T11:52:26.972Z,92.72
2022-10-17T11:55:11.929Z,92.72
2022-10-17T11:57:51.959Z,93.21
2022-10-17T12:00:39.261Z,93.18
2022-10-17T12:03:44.963Z,93.12
2022-10-17T12:06:29.263Z,93.31
2022-10-17T12:09:05.581Z,93.66
2022-10-17T12:11:54.984Z,93.89
2022-10-17T12:14:40.941Z,94.32
2022-10-17T12:17:34.140Z,94.35
2022-10-17T12:20:25.346Z,94.35
2022-10-17T12:23:16.236Z,94.56
2022-10-17T12:26:01.144Z,94.62
2022-10-17T12:28:32.094Z,94.66
2022-10-17T12:31:02.349Z,94.90
2022-10-17T12:33:35.236Z,95.01
2022-10-17T12:36:17.226Z,94.86
2022-10-17T12:38:49.211Z,95.26
2022-10-17T12:41:18.471Z,95.51
2022-10-17T12:43:45.361Z,95.58
2022-10-17T12:46:12.658Z,95.76
2022-10-17T12:48:44.186Z,95.57
2022-10-17T12:54:15.149Z,95.52
2022-10-17T12:56:47.514Z,95.80
2022-10-17T12:59:16.571Z,95.59
2022-10-17T13:01:50.829Z,95.66
2022-10-17T13:04:18.324Z,96.06
2022-10-17T13:06:48.252Z,96.17
2022-10-17T13:09:35.800Z,95.95
2022-10-17T13:12:10.895Z,95.88
2022-10-17T13:14:39.607Z,96.05
2022-10-17T13:17:10.250Z,96.19
2022-10-17T13:19:44.538Z,96.40
2022-10-17T13:22:28.155Z,96.41
2022-10-17T13:25:08.491Z,96.38
2022-10-17T13:27:36.615Z,96.35
2022-10-17T13:30:31.894Z,96.29
2022-10-17T13:33:01.882Z,96.62
2022-10-17T13:35:59.546Z,96.85
2022-10-17T13:38:32.777Z,96.74
2022-10-17T13:41:16.859Z,96.55
2022-10-17T13:43:50.368Z,96.65
2022-10-17T13:49:44.317Z,96.51
2022-10-17T13:52:20.575Z,96.64
2022-10-17T13:54:54.018Z,96.69
2022-10-17T13:57:29.976Z,96.92
2022-10-17T14:00:00.449Z,96.96
2022-10-17T14:02:32.951Z,97.00
2022-10-17T14:05:16.650Z,97.16
2022-10-17T14:08:11.374Z,97.05
2022-10-17T14:10:43.570Z,96.99
2022-10-17T14:13:25.449Z,97.28
2022-10-17T14:15:55.925Z,97.44
2022-10-17T14:18:35.909Z,97.32
2022-10-17T14:24:13.371Z,97.10
2022-10-17T14:27:00.741Z,97.05
2022-10-17T14:32:46.416Z,96.99
2022-10-17T14:35:41.200Z,96.95
2022-10-17T14:38:15.447Z,97.30
2022-10-17T14:40:51.930Z,97.55
2022-10-17T14:43:29.808Z,97.49
2022-10-17T14:46:03.064Z,97.32
2022-10-17T14:48:32.196Z,97.21
2022-10-17T14:51:09.537Z,97.36
2022-10-17T14:54:05.097Z,97.10
2022-10-17T14:56:43.042Z,97.13
2022-10-17T14:59:12.626Z,96.97
2022-10-17T15:01:45.337Z,96.76
2022-10-17T15:04:12.456Z,96.76
2022-10-17T15:06:44.311Z,96.82
2022-10-17T15:09:11.760Z,96.79
2022-10-17T15:11:40.251Z,97.04
2022-10-17T15:14:07.176Z,96.48
2022-10-17T15:16:39.544Z,96.46
2022-10-17T15:19:09.146Z,96.24
2022-10-17T15:21:42.092Z,96.28
2022-10-17T15:24:14.034Z,96.31
2022-10-17T15:26:41.019Z,96.33
2022-10-17T15:29:08.254Z,96.29
2022-10-17T15:31:39.040Z,96.38
2022-10-17T15:34:09.151Z,96.51
2022-10-17T15:36:43.303Z,96.70
2022-10-17T15:39:12.478Z,96.32
2022-10-17T15:41:39.944Z,96.47
2022-10-17T15:44:06.961Z,96.18
2022-10-17T15:46:35.374Z,96.41
2022-10-17T15:49:04.942Z,96.15
2022-10-17T15:51:32.505Z,96.00
2022-10-17T15:54:01.693Z,96.02
2022-10-17T15:56:38.611Z,95.97
2022-10-17T15:59:08.597Z,95.96
2022-10-17T16:01:35.914Z,95.68
2022-10-17T16:04:04.135Z,95.42
2022-10-17T16:06:32.277Z,95.63
2022-10-17T16:09:00.611Z,95.49
2022-10-17T16:11:39.151Z,95.55
2022-10-17T16:14:16.710Z,95.69
2022-10-17T16:16:44.100Z,95.72
2022-10-17T16:19:12.620Z,95.79
2022-10-17T16:21:40.838Z,95.68
2022-10-17T16:24:13.609Z,95.47
2022-10-17T16:26:43.548Z,95.00
2022-10-17T16:29:10.666Z,94.89
2022-10-17T16:31:41.948Z,94.74
2022-10-17T16:34:10.434Z,94.37
2022-10-17T16:36:37.353Z,94.50
2022-10-17T16:39:04.536Z,94.65
2022-10-17T16:41:36.874Z,94.42
2022-10-17T16:44:06.402Z,94.42
2022-10-17T16:46:34.228Z,94.22
2022-10-17T16:49:01.260Z,94.21
2022-10-17T16:51:31.371Z,94.33
2022-10-17T16:54:00.418Z,94.46
2022-10-17T16:56:32.786Z,94.12
2022-10-17T16:59:00.655Z,94.20
2022-10-17T17:01:32.120Z,94.09
2022-10-17T17:04:04.741Z,94.18
2022-10-17T17:06:32.822Z,93.81
2022-10-17T17:09:02.386Z,93.78
2022-10-17T17:11:29.543Z,93.75
2022-10-17T17:13:57.526Z,93.72
2022-10-17T17:16:26.087Z,93.60
2022-10-17T17:19:00.689Z,93.66
2022-10-17T17:21:28.161Z,93.67
2022-10-17T17:23:58.920Z,93.57
2022-10-17T17:26:32.443Z,93.72
2022-10-17T17:29:00.429Z,93.72
2022-10-17T17:31:30.153Z,93.66
2022-10-17T17:33:57.500Z,93.86
2022-10-17T17:36:27.335Z,93.76
2022-10-17T17:38:57.056Z,93.78
2022-10-17T17:41:29.711Z,94.07
2022-10-17T17:43:58.019Z,93.90
2022-10-17T17:46:25.604Z,94.25
2022-10-17T17:48:55.548Z,94.22
2022-10-17T17:51:28.362Z,94.32
2022-10-17T17:53:59.860Z,94.49
2022-10-17T17:56:30.670Z,94.51
2022-10-17T17:59:02.239Z,94.85
2022-10-17T18:01:37.894Z,94.97
2022-10-17T18:04:08.787Z,95.24
2022-10-17T18:06:41.970Z,95.59
2022-10-17T18:09:09.620Z,95.60
2022-10-17T18:11:37.086Z,95.51
2022-10-17T18:14:07.125Z,95.97
2022-10-17T18:16:36.322Z,96.01
2022-10-17T18:19:09.211Z,96.31
2022-10-17T18:21:38.098Z,96.55
2022-10-17T18:24:06.057Z,96.33
2022-10-17T18:26:33.364Z,96.66
2022-10-17T18:29:00.349Z,97.10
2022-10-17T18:31:35.776Z,97.32
2022-10-17T18:34:04.861Z,96.83
2022-10-17T18:36:35.232Z,96.67
2022-10-17T18:39:05.207Z,96.36
2022-10-17T18:41:32.871Z,96.18
2022-10-17T18:44:05.248Z,96.38
2022-10-17T18:46:36.558Z,96.25
2022-10-17T18:49:25.748Z,96.15
2022-10-17T18:51:58.333Z,96.26
2022-10-17T18:54:25.379Z,96.08
2022-10-17T18:56:55.869Z,96.25
2022-10-17T18:59:25.888Z,96.17
2022-10-17T19:02:20.195Z,96.07
2022-10-17T19:04:47.180Z,96.16
2022-10-17T19:07:14.354Z,96.42
2022-10-17T19:09:43.595Z,96.68
2022-10-17T19:12:10.664Z,96.67
2022-10-17T19:14:38.805Z,97.10
2022-10-17T19:17:08.496Z,96.86
2022-10-17T19:19:37.776Z,97.84
2022-10-17T19:22:08.752Z,97.66
2022-10-17T19:24:35.753Z,97.83
2022-10-17T19:27:08.137Z,98.26
2022-10-17T19:29:38.973Z,98.34
2022-10-17T19:32:14.114Z,98.36
2022-10-17T19:34:43.856Z,98.71
2022-10-17T19:37:10.772Z,98.76
2022-10-17T19:39:58.247Z,98.90
2022-10-17T19:42:25.484Z,99.04
2022-10-17T19:44:53.531Z,99.12
2022-10-17T19:47:22.982Z,99.34
2022-10-17T19:49:50.271Z,99.60
2022-10-17T19:52:19.488Z,100.00
2022-10-17T19:54:46.380Z,100.00
2022-10-17T19:57:13.364Z,100.00
2022-10-17T19:59:40.546Z,100.00
2022-10-17T20:02:08.426Z,99.83
2022-10-17T20:04:35.527Z,99.88
2022-10-17T20:07:03.224Z,100.00
2022-10-17T20:09:32.703Z,100.00
2022-10-17T20:11:59.728Z,100.00
2022-10-17T20:14:32.039Z,100.00
2022-10-17T20:16:59.033Z,100.00
2022-10-17T20:19:25.927Z,100.00
2022-10-17T20:21:52.827Z,100.00
2022-10-17T20:24:22.597Z,100.00
2022-10-17T20:26:49.603Z,100.00
2022-10-17T20:29:21.309Z,100.00
2022-10-17T20:31:48.945Z,100.00
2022-10-17T20:34:17.487Z,100.00
2022-10-17T20:36:44.549Z,100.00
2022-10-17T20:39:13.597Z,100.00
2022-10-17T20:41:40.993Z,100.00
2022-10-17T20:44:08.271Z,100.00
2022-10-17T20:46:37.614Z,100.00
2022-10-17T20:49:08.255Z,100.00
2022-10-17T20:51:35.648Z,100.00
2022-10-17T20:54:03.164Z,100.00
2022-10-17T20:56:32.113Z,100.00
2022-10-17T20:59:04.076Z,100.00
2022-10-17T21:01:35.963Z,100.00
2022-10-17T21:04:26.997Z,100.00
2022-10-17T21:06:52.261Z,100.00
2022-10-17T21:09:19.607Z,100.00
2022-10-17T21:11:48.354Z,100.00
2022-10-17T21:14:16.924Z,100.00
2022-10-17T21:16:46.935Z,100.00
2022-10-17T21:19:14.481Z,100.00
2022-10-17T21:21:43.547Z,100.00
2022-10-17T21:24:16.907Z,100.00
2022-10-17T21:26:45.151Z,100.00
2022-10-17T21:29:13.914Z,100.00
2022-10-17T21:31:43.459Z,100.00
2022-10-17T21:34:21.009Z,100.00
2022-10-17T21:36:48.917Z,100.00
2022-10-17T21:39:16.429Z,100.00
2022-10-17T21:41:44.457Z,100.00
2022-10-17T21:44:29.361Z,100.00
2022-10-17T21:46:56.495Z,100.00
2022-10-17T21:49:25.400Z,100.00
2022-10-17T21:51:54.503Z,100.00
2022-10-17T21:54:23.596Z,100.00
2022-10-17T21:56:51.407Z,100.00
2022-10-17T21:59:18.429Z,100.00
2022-10-17T22:01:46.314Z,100.00
2022-10-17T22:04:19.049Z,100.00
2022-10-17T22:06:48.067Z,100.00
2022-10-17T22:09:21.131Z,100.00
2022-10-17T22:11:51.936Z,100.00
2022-10-17T22:14:21.762Z,100.00
2022-10-17T22:16:49.254Z,100.00
2022-10-17T22:19:27.467Z,100.00
2022-10-17T22:21:55.524Z,100.00
2022-10-17T22:24:23.259Z,100.00
2022-10-17T22:26:50.818Z,100.00
2022-10-17T22:29:18.007Z,100.00
2022-10-17T22:31:44.987Z,100.00
2022-10-17T22:34:14.087Z,100.00
2022-10-17T22:36:44.538Z,100.00
2022-10-17T22:39:11.562Z,100.00
2022-10-17T22:41:38.636Z,100.00
2022-10-17T22:44:06.091Z,100.00
2022-10-17T22:46:33.066Z,100.00
2022-10-17T22:49:00.127Z,100.00
2022-10-17T22:51:27.232Z,100.00
2022-10-17T22:53:58.242Z,100.00
2022-10-17T22:56:25.299Z,100.00
2022-10-17T22:58:55.596Z,100.00
2022-10-17T23:01:25.834Z,100.00
2022-10-17T23:03:53.266Z,100.00
2022-10-17T23:06:23.544Z,100.00
2022-10-17T23:08:52.760Z,100.00
2022-10-17T23:11:21.062Z,100.00
2022-10-17T23:13:51.104Z,100.00
2022-10-17T23:16:17.992Z,100.00
2022-10-17T23:18:44.946Z,100.00
2022-10-17T23:21:12.053Z,100.00
2022-10-17T23:23:39.090Z,100.00
2022-10-17T23:26:14.012Z,100.00
2022-10-17T23:28:42.441Z,100.00
2022-10-17T23:31:20.474Z,100.00
2022-10-17T23:33:48.986Z,100.00
2022-10-17T23:36:18.434Z,100.00
2022-10-17T23:39:06.091Z,100.00
2022-10-17T23:41:33.668Z,100.00
2022-10-17T23:44:00.560Z,100.00
2022-10-17T23:46:27.504Z,100.00
2022-10-17T23:48:54.491Z,100.00
2022-10-17T23:51:25.347Z,100.00
2022-10-17T23:53:54.109Z,100.00
2022-10-17T23:56:23.200Z,100.00
2022-10-17T23:58:50.145Z,100.00
